createdAt,value
2023-11-23T00:00:14.684Z,26.03
2023-11-23T00:01:16.862Z,25.83
2023-11-23T00:02:19.564Z,25.18
2023-11-23T00:03:21.663Z,24.33
2023-11-23T00:04:23.788Z,24.30
2023-11-23T00:05:25.828Z,25.60
2023-11-23T00:06:27.773Z,25.07
2023-11-23T00:07:29.787Z,25.55
2023-11-23T00:08:31.786Z,24.97
2023-11-23T00:09:33.878Z,24.82
2023-11-23T00:10:35.861Z,26.03
2023-11-23T00:11:37.915Z,25.18
2023-11-23T00:12:42.222Z,26.07
2023-11-23T00:13:44.222Z,25.93
2023-11-23T00:14:46.440Z,25.97
2023-11-23T00:15:48.396Z,26.72
2023-11-23T00:16:50.404Z,24.87
2023-11-23T00:17:53.533Z,25.60
2023-11-23T00:18:55.718Z,26.05
2023-11-23T00:19:57.831Z,25.10
2023-11-23T00:20:59.971Z,24.97
2023-11-23T00:22:02.410Z,25.27
2023-11-23T00:23:04.412Z,24.93
2023-11-23T00:24:09.279Z,25.10
2023-11-23T00:25:13.459Z,25.10
2023-11-23T00:26:15.602Z,25.62
2023-11-23T00:27:17.655Z,25.70
2023-11-23T00:28:22.768Z,25.37
2023-11-23T00:29:24.763Z,25.42
2023-11-23T00:30:27.041Z,24.15
2023-11-23T00:31:28.994Z,24.27
2023-11-23T00:32:31.132Z,24.73
2023-11-23T00:33:33.180Z,24.35
2023-11-23T00:34:35.271Z,24.50
2023-11-23T00:35:37.298Z,24.38
2023-11-23T00:36:39.916Z,24.73
2023-11-23T00:37:41.978Z,24.43
2023-11-23T00:38:45.780Z,23.97
2023-11-23T00:39:47.772Z,24.33
2023-11-23T00:40:52.557Z,23.43
2023-11-23T00:41:54.619Z,23.80
2023-11-23T00:42:56.586Z,24.18
2023-11-23T00:43:58.615Z,24.87
2023-11-23T00:45:00.657Z,25.08
2023-11-23T00:46:04.382Z,24.13
2023-11-23T00:47:06.493Z,24.20
2023-11-23T00:48:08.516Z,23.85
2023-11-23T00:49:10.524Z,25.08
2023-11-23T00:50:14.346Z,24.90
2023-11-23T00:51:17.415Z,24.87
2023-11-23T00:52:19.461Z,24.25
2023-11-23T00:53:22.435Z,24.87
2023-11-23T00:54:24.436Z,24.75
2023-11-23T00:55:26.430Z,24.67
2023-11-23T00:56:29.110Z,25.60
2023-11-23T00:57:33.412Z,24.42
2023-11-23T00:58:35.384Z,25.60
2023-11-23T00:59:37.807Z,24.68
2023-11-23T01:00:39.787Z,24.47
2023-11-23T01:01:41.902Z,24.43
2023-11-23T01:02:44.859Z,24.35
2023-11-23T01:03:47.120Z,25.03
2023-11-23T01:04:49.374Z,25.58
2023-11-23T01:05:51.599Z,23.90
2023-11-23T01:06:53.584Z,24.20
2023-11-23T01:07:57.409Z,24.47
2023-11-23T01:08:59.493Z,25.37
2023-11-23T01:10:01.467Z,24.67
2023-11-23T01:11:03.949Z,24.42
2023-11-23T01:12:10.650Z,24.72
2023-11-23T01:13:13.342Z,25.22
2023-11-23T01:14:15.495Z,25.27
2023-11-23T01:15:17.992Z,24.67
2023-11-23T01:16:20.092Z,24.62
2023-11-23T01:17:22.111Z,24.40
2023-11-23T01:18:24.727Z,24.25
2023-11-23T01:19:26.753Z,23.33
2023-11-23T01:20:28.774Z,23.45
2023-11-23T01:21:30.752Z,24.18
2023-11-23T01:22:32.789Z,24.73
2023-11-23T01:23:37.536Z,23.88
2023-11-23T01:24:42.574Z,24.68
2023-11-23T01:25:44.524Z,24.28
2023-11-23T01:26:46.535Z,24.87
2023-11-23T01:27:51.515Z,24.17
2023-11-23T01:28:53.460Z,24.92
2023-11-23T01:29:55.502Z,24.60
2023-11-23T01:30:57.512Z,25.02
2023-11-23T01:31:59.513Z,24.55
2023-11-23T01:33:01.658Z,25.43
2023-11-23T01:34:05.105Z,23.98
2023-11-23T01:35:07.705Z,24.18
2023-11-23T01:36:09.881Z,25.27
2023-11-23T01:37:11.992Z,25.47
2023-11-23T01:38:13.935Z,25.28
2023-11-23T01:39:15.973Z,24.08
2023-11-23T01:40:18.445Z,24.33
2023-11-23T01:41:20.448Z,25.53
2023-11-23T01:42:22.416Z,24.87
2023-11-23T01:43:24.732Z,23.95
2023-11-23T01:44:26.660Z,24.97
2023-11-23T01:45:28.668Z,25.20
2023-11-23T01:46:30.632Z,24.42
2023-11-23T01:47:32.654Z,24.30
2023-11-23T01:48:34.723Z,25.10
2023-11-23T01:49:36.755Z,24.33
2023-11-23T01:50:42.303Z,24.07
2023-11-23T01:51:44.269Z,24.22
2023-11-23T01:52:47.126Z,24.67
2023-11-23T01:53:49.193Z,24.18
2023-11-23T01:54:52.137Z,25.10
2023-11-23T01:55:54.131Z,24.67
2023-11-23T01:56:56.122Z,25.23
2023-11-23T01:57:58.277Z,25.35
2023-11-23T01:59:00.442Z,24.33
2023-11-23T02:00:02.477Z,25.38
2023-11-23T02:01:04.901Z,25.67
2023-11-23T02:02:07.051Z,25.07
2023-11-23T02:03:09.160Z,24.17
2023-11-23T02:04:11.744Z,24.15
2023-11-23T02:05:16.547Z,25.32
2023-11-23T02:06:20.268Z,25.50
2023-11-23T02:07:22.764Z,25.55
2023-11-23T02:08:25.597Z,26.17
2023-11-23T02:09:29.857Z,26.30
2023-11-23T02:10:31.833Z,26.55
2023-11-23T02:11:33.823Z,25.52
2023-11-23T02:12:36.904Z,24.87
2023-11-23T02:13:39.524Z,23.55
2023-11-23T02:14:43.037Z,24.75
2023-11-23T02:15:45.789Z,24.63
2023-11-23T02:16:47.763Z,24.95
2023-11-23T02:18:01.659Z,23.65
2023-11-23T02:19:05.262Z,25.78
2023-11-23T02:20:11.297Z,24.17
2023-11-23T02:21:13.336Z,23.55
2023-11-23T02:22:15.833Z,24.75
2023-11-23T02:23:17.842Z,23.23
2023-11-23T02:24:21.360Z,24.17
2023-11-23T02:25:23.357Z,24.53
2023-11-23T02:26:25.371Z,25.52
2023-11-23T02:27:27.390Z,25.30
2023-11-23T02:28:30.744Z,23.43
2023-11-23T02:29:32.708Z,25.08
2023-11-23T02:30:35.931Z,23.83
2023-11-23T02:31:38.496Z,24.60
2023-11-23T02:32:40.999Z,24.73
2023-11-23T02:33:43.017Z,25.75
2023-11-23T02:34:45.004Z,24.10
2023-11-23T02:35:47.029Z,24.00
2023-11-23T02:36:49.346Z,24.75
2023-11-23T02:37:51.313Z,25.88
2023-11-23T02:38:53.283Z,26.72
2023-11-23T02:39:55.261Z,25.57
2023-11-23T02:40:59.212Z,25.55
2023-11-23T02:42:01.397Z,25.70
2023-11-23T02:43:06.896Z,26.10
2023-11-23T02:45:11.722Z,25.07
2023-11-23T02:46:14.001Z,25.38
2023-11-23T02:47:15.989Z,24.98
2023-11-23T02:48:18.040Z,25.07
2023-11-23T02:49:22.968Z,24.92
2023-11-23T02:50:25.973Z,24.90
2023-11-23T02:51:27.921Z,24.78
2023-11-23T02:52:29.913Z,24.30
2023-11-23T02:53:33.994Z,24.38
2023-11-23T02:54:36.022Z,24.47
2023-11-23T02:55:38.005Z,24.33
2023-11-23T02:56:39.950Z,25.42
2023-11-23T02:57:43.569Z,25.88
2023-11-23T02:58:47.984Z,24.40
2023-11-23T02:59:50.989Z,24.55
2023-11-23T03:00:53.008Z,25.02
2023-11-23T03:01:55.179Z,26.07
2023-11-23T03:02:57.296Z,24.57
2023-11-23T03:03:59.441Z,25.43
2023-11-23T03:05:01.816Z,25.37
2023-11-23T03:06:03.809Z,26.12
2023-11-23T03:07:05.765Z,25.07
2023-11-23T03:08:07.779Z,24.55
2023-11-23T03:09:09.782Z,25.50
2023-11-23T03:10:11.861Z,25.10
2023-11-23T03:11:25.424Z,24.68
2023-11-23T03:12:27.426Z,25.88
2023-11-23T03:13:29.436Z,24.62
2023-11-23T03:14:31.410Z,24.07
2023-11-23T03:15:33.402Z,23.42
2023-11-23T03:16:35.359Z,23.97
2023-11-23T03:17:37.592Z,24.18
2023-11-23T03:18:40.567Z,25.12
2023-11-23T03:19:42.701Z,25.25
2023-11-23T03:20:44.834Z,24.82
2023-11-23T03:21:47.166Z,23.98
2023-11-23T03:22:49.188Z,24.62
2023-11-23T03:23:51.531Z,25.52
2023-11-23T03:24:53.529Z,25.27
2023-11-23T03:25:55.483Z,25.07
2023-11-23T03:26:57.813Z,26.15
2023-11-23T03:27:59.835Z,26.57
2023-11-23T03:29:01.785Z,25.93
2023-11-23T03:30:05.776Z,25.55
2023-11-23T03:31:07.733Z,26.63
2023-11-23T03:32:09.718Z,26.05
2023-11-23T03:33:11.834Z,27.05
2023-11-23T03:34:13.949Z,28.03
2023-11-23T03:35:15.920Z,25.18
2023-11-23T03:36:17.942Z,24.67
2023-11-23T03:37:19.964Z,26.42
2023-11-23T03:38:22.737Z,25.98
2023-11-23T03:39:24.849Z,24.82
2023-11-23T03:40:26.843Z,25.18
2023-11-23T03:41:28.798Z,26.53
2023-11-23T03:42:32.719Z,26.10
2023-11-23T03:43:34.665Z,25.52
2023-11-23T03:44:36.604Z,27.03
2023-11-23T03:45:38.695Z,26.75
2023-11-23T03:46:41.586Z,26.80
2023-11-23T03:47:46.834Z,26.38
2023-11-23T03:48:48.913Z,25.88
2023-11-23T03:49:52.686Z,26.85
2023-11-23T03:50:57.821Z,25.68
2023-11-23T03:51:59.832Z,26.57
2023-11-23T03:53:01.850Z,26.22
2023-11-23T03:54:04.118Z,26.10
2023-11-23T03:55:06.669Z,26.38
2023-11-23T03:56:09.488Z,25.53
2023-11-23T03:57:14.413Z,26.22
2023-11-23T03:58:16.584Z,26.95
2023-11-23T03:59:18.575Z,26.28
2023-11-23T04:00:23.316Z,25.90
2023-11-23T04:01:25.409Z,25.03
2023-11-23T04:02:27.780Z,26.33
2023-11-23T04:03:29.969Z,25.52
2023-11-23T04:04:32.485Z,24.43
2023-11-23T04:05:34.503Z,25.50
2023-11-23T04:06:36.453Z,25.90
2023-11-23T04:07:38.446Z,26.17
2023-11-23T04:08:41.083Z,26.08
2023-11-23T04:09:43.048Z,26.47
2023-11-23T04:10:49.195Z,25.85
2023-11-23T04:11:51.323Z,26.07
2023-11-23T04:12:53.298Z,26.00
2023-11-23T04:13:55.421Z,26.13
2023-11-23T04:14:57.435Z,26.03
2023-11-23T04:15:59.398Z,25.82
2023-11-23T04:17:01.422Z,25.68
2023-11-23T04:18:03.479Z,24.77
2023-11-23T04:19:08.455Z,25.52
2023-11-23T04:20:11.114Z,26.17
2023-11-23T04:21:13.415Z,26.53
2023-11-23T04:22:15.474Z,26.15
2023-11-23T04:23:17.690Z,25.87
2023-11-23T04:24:19.949Z,25.25
2023-11-23T04:25:21.964Z,25.78
2023-11-23T04:26:24.035Z,25.83
2023-11-23T04:27:26.034Z,26.40
2023-11-23T04:28:28.030Z,25.67
2023-11-23T04:29:31.909Z,24.73
2023-11-23T04:30:33.913Z,26.00
2023-11-23T04:31:36.328Z,26.35
2023-11-23T04:32:38.332Z,27.37
2023-11-23T04:33:40.541Z,27.32
2023-11-23T04:34:42.612Z,26.08
2023-11-23T04:35:47.465Z,24.58
2023-11-23T04:36:49.743Z,24.48
2023-11-23T04:37:51.718Z,24.67
2023-11-23T04:38:54.399Z,26.02
2023-11-23T04:39:56.382Z,24.80
2023-11-23T04:40:58.351Z,25.68
2023-11-23T04:42:00.575Z,26.07
2023-11-23T04:43:02.583Z,24.95
2023-11-23T04:44:04.595Z,24.83
2023-11-23T04:45:07.101Z,24.58
2023-11-23T04:46:09.167Z,25.53
2023-11-23T04:47:11.451Z,25.60
2023-11-23T04:48:13.592Z,25.92
2023-11-23T04:49:15.629Z,25.32
2023-11-23T04:50:20.129Z,24.57
2023-11-23T04:51:23.574Z,26.45
2023-11-23T04:52:25.587Z,26.38
2023-11-23T04:53:27.573Z,26.48
2023-11-23T04:54:29.584Z,25.45
2023-11-23T04:55:32.020Z,25.85
2023-11-23T04:56:34.376Z,26.47
2023-11-23T04:57:36.324Z,26.12
2023-11-23T04:58:38.341Z,25.85
2023-11-23T04:59:40.324Z,25.15
2023-11-23T05:00:42.454Z,25.03
2023-11-23T05:01:44.493Z,25.22
2023-11-23T05:02:46.521Z,25.43
2023-11-23T05:03:48.740Z,25.27
2023-11-23T05:04:51.733Z,25.68
2023-11-23T05:05:53.713Z,24.70
2023-11-23T05:06:57.355Z,24.35
2023-11-23T05:07:59.441Z,25.03
2023-11-23T05:09:01.441Z,24.48
2023-11-23T05:10:03.516Z,26.35
2023-11-23T05:11:05.562Z,26.30
2023-11-23T05:12:07.885Z,26.00
2023-11-23T05:13:12.429Z,26.35
2023-11-23T05:14:14.453Z,26.42
2023-11-23T05:15:16.731Z,27.23
2023-11-23T05:16:18.819Z,26.82
2023-11-23T05:17:20.845Z,26.15
2023-11-23T05:18:22.896Z,26.75
2023-11-23T05:19:35.883Z,25.58
2023-11-23T05:20:44.131Z,25.32
2023-11-23T05:21:46.105Z,25.93
2023-11-23T05:22:48.053Z,25.20
2023-11-23T05:23:50.048Z,26.38
2023-11-23T05:24:52.113Z,25.53
2023-11-23T05:25:54.296Z,25.17
2023-11-23T05:26:59.070Z,25.22
2023-11-23T05:28:01.127Z,26.97
2023-11-23T05:29:06.191Z,26.47
2023-11-23T05:30:08.381Z,27.05
2023-11-23T05:31:10.633Z,27.23
2023-11-23T05:32:12.632Z,26.40
2023-11-23T05:33:14.740Z,25.77
2023-11-23T05:34:16.809Z,24.82
2023-11-23T05:35:18.776Z,24.82
2023-11-23T05:36:20.834Z,25.08
2023-11-23T05:37:22.850Z,23.73
2023-11-23T05:38:24.816Z,24.15
2023-11-23T05:39:26.944Z,24.95
2023-11-23T05:40:29.096Z,25.48
2023-11-23T05:41:31.093Z,24.15
2023-11-23T05:42:33.140Z,24.15
2023-11-23T05:43:35.125Z,24.45
2023-11-23T05:44:37.876Z,25.85
2023-11-23T05:45:39.875Z,25.25
2023-11-23T05:46:41.959Z,25.07
2023-11-23T05:47:43.964Z,25.42
2023-11-23T05:48:47.149Z,25.35
2023-11-23T05:49:49.148Z,25.07
2023-11-23T05:50:51.225Z,24.07
2023-11-23T05:51:56.140Z,25.03
2023-11-23T05:53:00.800Z,25.30
2023-11-23T05:54:02.805Z,25.02
2023-11-23T05:55:08.582Z,25.22
2023-11-23T05:56:10.726Z,25.98
2023-11-23T05:57:13.059Z,24.93
2023-11-23T05:58:15.073Z,25.70
2023-11-23T05:59:17.067Z,24.95
2023-11-23T06:00:19.405Z,24.75
2023-11-23T06:01:21.441Z,25.50
2023-11-23T06:02:23.544Z,24.77
2023-11-23T06:03:26.278Z,26.28
2023-11-23T06:04:28.445Z,26.40
2023-11-23T06:05:30.578Z,26.97
2023-11-23T06:06:32.628Z,25.98
2023-11-23T06:07:34.641Z,26.17
2023-11-23T06:08:36.594Z,26.50
2023-11-23T06:09:39.097Z,24.37
2023-11-23T06:10:41.072Z,24.95
2023-11-23T06:11:44.506Z,25.68
2023-11-23T06:12:47.025Z,26.25
2023-11-23T06:13:48.983Z,24.70
2023-11-23T06:14:51.066Z,25.42
2023-11-23T06:15:53.383Z,25.97
2023-11-23T06:16:55.465Z,26.58
2023-11-23T06:18:07.544Z,26.32
2023-11-23T06:19:15.755Z,26.02
2023-11-23T06:20:17.747Z,25.65
2023-11-23T06:21:19.831Z,26.40
2023-11-23T06:22:21.844Z,26.08
2023-11-23T06:23:24.180Z,25.88
2023-11-23T06:24:26.197Z,25.12
2023-11-23T06:25:28.163Z,25.10
2023-11-23T06:26:30.120Z,24.77
2023-11-23T06:27:33.427Z,25.60
2023-11-23T06:28:35.449Z,25.80
2023-11-23T06:29:37.431Z,26.58
2023-11-23T06:30:39.479Z,25.90
2023-11-23T06:31:42.024Z,25.37
2023-11-23T06:32:44.018Z,25.88
2023-11-23T06:33:46.170Z,25.32
2023-11-23T06:34:48.223Z,24.07
2023-11-23T06:35:50.248Z,24.45
2023-11-23T06:36:52.267Z,25.33
2023-11-23T06:37:54.227Z,24.67
2023-11-23T06:38:56.772Z,25.30
2023-11-23T06:39:58.815Z,25.65
2023-11-23T06:41:00.795Z,26.12
2023-11-23T06:42:02.876Z,24.30
2023-11-23T06:43:04.898Z,24.55
2023-11-23T06:44:07.915Z,25.57
2023-11-23T06:45:10.189Z,26.88
2023-11-23T06:46:12.208Z,26.25
2023-11-23T06:47:15.473Z,26.18
2023-11-23T06:48:17.655Z,25.60
2023-11-23T06:49:19.730Z,25.45
2023-11-23T06:50:22.068Z,25.67
2023-11-23T06:51:24.084Z,25.95
2023-11-23T06:52:27.246Z,24.50
2023-11-23T06:53:29.562Z,24.97
2023-11-23T06:54:31.596Z,25.10
2023-11-23T06:55:34.016Z,25.00
2023-11-23T06:56:36.013Z,24.98
2023-11-23T06:57:43.318Z,24.52
2023-11-23T06:58:48.629Z,23.53
2023-11-23T06:59:50.779Z,24.67
2023-11-23T07:00:52.728Z,24.47
2023-11-23T07:01:57.786Z,24.52
2023-11-23T07:03:00.975Z,24.48
2023-11-23T07:04:02.993Z,24.68
2023-11-23T07:05:05.370Z,24.23
2023-11-23T07:06:07.418Z,23.17
2023-11-23T07:07:09.400Z,23.78
2023-11-23T07:08:11.388Z,22.75
2023-11-23T07:09:15.129Z,24.18
2023-11-23T07:10:20.122Z,23.83
2023-11-23T07:11:23.625Z,24.05
2023-11-23T07:12:27.789Z,24.57
2023-11-23T07:13:30.053Z,24.68
2023-11-23T07:14:32.073Z,24.75
2023-11-23T07:15:34.362Z,23.72
2023-11-23T07:16:37.439Z,24.00
2023-11-23T07:17:40.072Z,24.43
2023-11-23T07:18:42.056Z,24.17
2023-11-23T07:19:44.099Z,24.78
2023-11-23T07:20:46.046Z,24.40
2023-11-23T07:21:51.291Z,23.97
2023-11-23T07:22:53.908Z,23.97
2023-11-23T07:23:58.847Z,23.72
2023-11-23T07:25:01.450Z,23.68
2023-11-23T07:26:03.433Z,23.07
2023-11-23T07:27:05.456Z,23.33
2023-11-23T07:28:15.717Z,22.52
2023-11-23T07:29:17.656Z,21.75
2023-11-23T07:30:19.687Z,24.25
2023-11-23T07:31:21.725Z,24.52
2023-11-23T07:32:23.739Z,24.13
2023-11-23T07:33:37.186Z,24.42
2023-11-23T07:34:39.168Z,24.67
2023-11-23T07:35:41.130Z,24.10
2023-11-23T07:36:43.113Z,23.33
2023-11-23T07:37:45.068Z,24.08
2023-11-23T07:38:47.071Z,24.08
2023-11-23T07:39:49.031Z,25.07
2023-11-23T07:40:51.026Z,24.43
2023-11-23T07:41:53.286Z,22.35
2023-11-23T07:42:55.340Z,23.67
2023-11-23T07:43:59.061Z,23.25
2023-11-23T07:45:01.274Z,23.65
2023-11-23T07:46:03.606Z,24.55
2023-11-23T07:47:10.152Z,23.40
2023-11-23T07:48:15.447Z,24.83
2023-11-23T07:49:18.007Z,24.68
2023-11-23T07:50:19.980Z,24.32
2023-11-23T07:51:22.073Z,23.47
2023-11-23T07:52:24.080Z,22.78
2023-11-23T07:53:29.805Z,24.02
2023-11-23T07:54:31.894Z,23.75
2023-11-23T07:55:33.887Z,22.82
2023-11-23T07:56:35.917Z,22.02
2023-11-23T07:57:38.309Z,23.03
2023-11-23T07:58:40.298Z,24.57
2023-11-23T07:59:44.533Z,24.55
2023-11-23T08:00:46.534Z,23.93
2023-11-23T08:01:48.958Z,24.60
2023-11-23T08:02:51.028Z,23.08
2023-11-23T08:03:53.207Z,22.97
2023-11-23T08:04:55.262Z,22.47
2023-11-23T08:05:57.336Z,23.32
2023-11-23T08:07:02.132Z,23.32
2023-11-23T08:08:04.421Z,24.78
2023-11-23T08:09:06.466Z,22.72
2023-11-23T08:10:08.597Z,25.13
2023-11-23T08:11:11.155Z,24.37
2023-11-23T08:12:13.199Z,22.53
2023-11-23T08:13:18.319Z,19.15
2023-11-23T08:14:23.174Z,20.57
2023-11-23T08:15:25.787Z,20.98
2023-11-23T08:16:27.803Z,19.70
2023-11-23T08:17:29.756Z,19.62
2023-11-23T08:18:40.076Z,18.28
2023-11-23T08:19:47.910Z,18.60
2023-11-23T08:20:52.582Z,18.82
2023-11-23T08:21:54.729Z,19.32
2023-11-23T08:22:58.496Z,18.30
2023-11-23T08:24:00.565Z,18.62
2023-11-23T08:25:02.566Z,17.97
2023-11-23T08:26:05.086Z,17.75
2023-11-23T08:27:07.277Z,18.08
2023-11-23T08:28:09.260Z,18.78
2023-11-23T08:29:11.245Z,18.18
2023-11-23T08:30:14.089Z,17.65
2023-11-23T08:31:16.209Z,17.67
2023-11-23T08:32:18.173Z,18.22
2023-11-23T08:33:20.221Z,18.38
2023-11-23T08:34:22.242Z,18.93
2023-11-23T08:35:24.244Z,18.85
2023-11-23T08:36:26.550Z,19.13
2023-11-23T08:37:28.786Z,18.57
2023-11-23T08:38:30.814Z,18.72
2023-11-23T08:39:32.814Z,18.90
2023-11-23T08:40:34.760Z,20.32
2023-11-23T08:41:36.749Z,19.30
2023-11-23T08:42:38.721Z,19.45
2023-11-23T08:43:40.712Z,20.33
2023-11-23T08:44:42.676Z,20.43
2023-11-23T08:45:44.715Z,19.53
2023-11-23T08:46:46.707Z,20.65
2023-11-23T08:47:48.955Z,20.77
2023-11-23T08:48:50.960Z,19.58
2023-11-23T08:49:52.928Z,19.87
2023-11-23T08:50:54.949Z,19.65
2023-11-23T08:51:56.912Z,19.05
2023-11-23T08:53:00.330Z,19.65
2023-11-23T08:54:02.349Z,19.07
2023-11-23T08:55:09.966Z,19.80
2023-11-23T08:56:14.414Z,19.42
2023-11-23T08:57:16.667Z,19.83
2023-11-23T08:58:19.732Z,19.52
2023-11-23T08:59:21.704Z,20.43
2023-11-23T09:00:28.861Z,19.48
2023-11-23T09:01:30.941Z,19.12
2023-11-23T09:02:34.750Z,20.45
2023-11-23T09:03:36.951Z,20.27
2023-11-23T09:04:45.116Z,21.13
2023-11-23T09:05:47.995Z,20.57
2023-11-23T09:06:50.162Z,20.38
2023-11-23T09:07:52.205Z,20.00
2023-11-23T09:08:55.715Z,20.65
2023-11-23T09:09:57.712Z,20.45
2023-11-23T09:10:59.669Z,20.40
2023-11-23T09:12:02.807Z,20.22
2023-11-23T09:13:06.317Z,20.43
2023-11-23T09:14:10.397Z,20.32
2023-11-23T09:15:14.539Z,21.13
2023-11-23T09:16:19.802Z,19.25
2023-11-23T09:17:21.871Z,18.63
2023-11-23T09:18:24.142Z,19.17
2023-11-23T09:19:26.244Z,19.20
2023-11-23T09:20:28.196Z,19.43
2023-11-23T09:21:30.226Z,19.67
2023-11-23T09:22:35.051Z,19.43
2023-11-23T09:23:37.091Z,18.05
2023-11-23T09:24:39.692Z,18.50
2023-11-23T09:25:42.120Z,18.47
2023-11-23T09:26:44.093Z,18.23
2023-11-23T09:27:46.095Z,19.10
2023-11-23T09:28:48.409Z,18.65
2023-11-23T09:29:50.382Z,18.90
2023-11-23T09:30:52.942Z,18.68
2023-11-23T09:31:54.934Z,18.53
2023-11-23T09:32:57.108Z,19.42
2023-11-23T09:33:59.177Z,18.78
2023-11-23T09:35:01.233Z,18.52
2023-11-23T09:36:03.963Z,18.98
2023-11-23T09:37:09.473Z,19.28
2023-11-23T09:38:11.444Z,19.85
2023-11-23T09:39:19.457Z,18.23
2023-11-23T09:40:21.936Z,18.67
2023-11-23T09:41:23.897Z,18.52
2023-11-23T09:42:28.094Z,16.78
2023-11-23T09:43:30.838Z,16.90
2023-11-23T09:44:33.024Z,17.42
2023-11-23T09:45:35.184Z,17.55
2023-11-23T09:46:39.090Z,17.65
2023-11-23T09:47:41.549Z,17.13
2023-11-23T09:48:45.142Z,17.45
2023-11-23T09:49:47.348Z,16.97
2023-11-23T09:50:49.363Z,17.03
2023-11-23T09:51:56.928Z,17.35
2023-11-23T09:52:59.413Z,17.20
2023-11-23T09:54:01.370Z,16.25
2023-11-23T09:55:05.256Z,16.15
2023-11-23T09:56:07.896Z,16.58
2023-11-23T09:57:09.932Z,16.52
2023-11-23T09:58:11.926Z,17.40
2023-11-23T09:59:13.917Z,15.45
2023-11-23T10:00:16.264Z,16.77
2023-11-23T10:01:18.368Z,16.23
2023-11-23T10:02:21.966Z,16.57
2023-11-23T10:03:24.471Z,16.38
2023-11-23T10:04:26.890Z,15.17
2023-11-23T10:05:29.172Z,15.15
2023-11-23T10:06:31.179Z,15.67
2023-11-23T10:07:33.803Z,15.78
2023-11-23T10:08:37.127Z,15.33
2023-11-23T10:09:39.200Z,16.33
2023-11-23T10:10:41.222Z,16.82
2023-11-23T10:11:48.194Z,15.77
2023-11-23T10:12:50.830Z,16.10
2023-11-23T10:13:52.877Z,16.98
2023-11-23T10:14:55.160Z,17.68
2023-11-23T10:15:57.219Z,17.27
2023-11-23T10:16:59.202Z,17.88
2023-11-23T10:18:01.243Z,17.38
2023-11-23T10:19:04.756Z,16.67
2023-11-23T10:20:09.236Z,15.75
2023-11-23T10:21:13.026Z,16.32
2023-11-23T10:22:16.511Z,16.35
2023-11-23T10:23:21.708Z,17.08
2023-11-23T10:24:25.362Z,16.73
2023-11-23T10:25:37.059Z,17.50
2023-11-23T10:26:39.154Z,16.75
2023-11-23T10:27:41.139Z,17.47
2023-11-23T10:28:43.145Z,18.52
2023-11-23T10:29:45.094Z,18.13
2023-11-23T10:30:47.130Z,17.22
2023-11-23T10:31:49.155Z,16.67
2023-11-23T10:32:52.389Z,15.72
2023-11-23T10:33:54.390Z,14.25
2023-11-23T10:35:00.498Z,13.13
2023-11-23T10:36:09.961Z,13.70
2023-11-23T10:37:14.724Z,13.05
2023-11-23T10:38:16.875Z,12.93
2023-11-23T10:39:20.314Z,12.68
2023-11-23T10:40:22.751Z,12.88
2023-11-23T10:41:24.731Z,12.37
2023-11-23T10:42:26.914Z,12.95
2023-11-23T10:43:28.953Z,13.58
2023-11-23T10:44:31.222Z,13.50
2023-11-23T10:45:35.587Z,12.47
2023-11-23T10:46:41.256Z,12.23
2023-11-23T10:47:46.177Z,13.28
2023-11-23T10:48:48.370Z,13.68
2023-11-23T10:49:50.919Z,13.27
2023-11-23T10:50:53.602Z,13.50
2023-11-23T10:51:55.554Z,13.28
2023-11-23T10:52:59.994Z,13.42
2023-11-23T10:54:02.404Z,13.30
2023-11-23T10:55:05.874Z,14.18
2023-11-23T10:56:13.669Z,13.48
2023-11-23T10:57:18.203Z,13.40
2023-11-23T10:58:20.370Z,12.43
2023-11-23T10:59:22.424Z,12.50
2023-11-23T11:00:27.545Z,13.28
2023-11-23T11:01:31.048Z,13.02
2023-11-23T11:02:33.168Z,13.83
2023-11-23T11:03:39.718Z,13.38
2023-11-23T11:04:44.623Z,13.67
2023-11-23T11:05:49.409Z,13.82
2023-11-23T11:06:53.428Z,14.15
2023-11-23T11:08:06.920Z,13.20
2023-11-23T11:09:18.135Z,13.58
2023-11-23T11:10:23.159Z,13.95
2023-11-23T11:11:25.963Z,14.03
2023-11-23T11:12:36.890Z,14.68
2023-11-23T11:13:44.262Z,13.92
2023-11-23T11:14:55.396Z,13.33
2023-11-23T11:15:58.531Z,13.55
2023-11-23T11:17:09.362Z,12.63
2023-11-23T11:18:12.227Z,12.83
2023-11-23T11:19:17.612Z,13.15
2023-11-23T11:20:23.670Z,13.23
2023-11-23T11:21:27.325Z,12.98
2023-11-23T11:22:30.741Z,13.10
2023-11-23T11:23:46.260Z,13.50
2023-11-23T11:24:58.031Z,12.72
2023-11-23T11:26:07.052Z,12.58
2023-11-23T11:27:10.802Z,13.25
2023-11-23T11:28:15.652Z,12.55
2023-11-23T11:29:20.178Z,12.27
2023-11-23T11:30:26.011Z,11.93
2023-11-23T11:31:38.049Z,12.13
2023-11-23T11:32:41.226Z,12.57
2023-11-23T11:33:43.274Z,12.03
2023-11-23T11:34:45.274Z,11.90
2023-11-23T11:35:49.370Z,12.63
2023-11-23T11:36:52.515Z,13.25
2023-11-23T11:37:56.176Z,13.53
2023-11-23T11:39:00.876Z,12.95
2023-11-23T11:40:03.945Z,14.08
2023-11-23T11:41:08.034Z,13.68
2023-11-23T11:42:11.850Z,13.62
2023-11-23T11:43:16.166Z,12.95
2023-11-23T11:44:18.822Z,12.30
2023-11-23T11:45:21.687Z,12.67
2023-11-23T11:46:23.798Z,13.00
2023-11-23T11:47:27.276Z,11.97
2023-11-23T11:48:29.603Z,12.12
2023-11-23T11:49:31.717Z,12.58
2023-11-23T11:50:33.694Z,12.38
2023-11-23T11:51:35.728Z,12.23
2023-11-23T11:52:38.565Z,12.43
2023-11-23T11:53:41.687Z,11.63
2023-11-23T11:54:43.763Z,11.65
2023-11-23T11:55:48.676Z,11.35
2023-11-23T11:56:53.887Z,12.25
2023-11-23T11:57:56.494Z,11.97
2023-11-23T11:59:00.330Z,11.77
2023-11-23T12:00:02.507Z,12.33
2023-11-23T12:01:04.673Z,11.57
2023-11-23T12:02:07.370Z,12.37
2023-11-23T12:03:09.710Z,12.28
2023-11-23T12:04:16.501Z,12.35
2023-11-23T12:05:18.939Z,12.10
2023-11-23T12:06:21.147Z,12.30
2023-11-23T12:07:23.179Z,12.75
2023-11-23T12:08:31.969Z,12.92
2023-11-23T12:09:38.883Z,12.97
2023-11-23T12:10:46.312Z,12.20
2023-11-23T12:11:50.116Z,12.85
2023-11-23T12:12:52.713Z,12.57
2023-11-23T12:13:54.853Z,11.83
2023-11-23T12:14:57.984Z,11.78
2023-11-23T12:16:00.227Z,12.77
2023-11-23T12:17:10.162Z,12.35
2023-11-23T12:18:15.793Z,12.97
2023-11-23T12:19:18.672Z,12.68
2023-11-23T12:20:21.238Z,12.52
2023-11-23T12:21:23.271Z,12.63
2023-11-23T12:22:27.019Z,11.85
2023-11-23T12:23:30.491Z,12.85
2023-11-23T12:24:32.609Z,12.23
2023-11-23T12:25:34.970Z,12.27
2023-11-23T12:26:39.954Z,12.50
2023-11-23T12:27:42.597Z,12.30
2023-11-23T12:28:47.722Z,12.02
2023-11-23T12:29:49.965Z,12.83
2023-11-23T12:30:52.225Z,12.67
2023-11-23T12:31:54.237Z,12.88
2023-11-23T12:32:56.611Z,12.35
2023-11-23T12:33:58.596Z,12.12
2023-11-23T12:35:00.616Z,12.25
2023-11-23T12:36:02.639Z,12.45
2023-11-23T12:37:05.180Z,13.25
2023-11-23T12:38:07.962Z,12.83
2023-11-23T12:39:10.435Z,13.65
2023-11-23T12:40:13.360Z,12.48
2023-11-23T12:41:15.384Z,13.15
2023-11-23T12:42:17.902Z,12.92
2023-11-23T12:43:19.967Z,12.73
2023-11-23T12:44:22.029Z,12.47
2023-11-23T12:45:24.076Z,12.93
2023-11-23T12:46:26.180Z,12.93
2023-11-23T12:47:31.187Z,13.08
2023-11-23T12:48:35.357Z,12.68
2023-11-23T12:49:37.364Z,12.00
2023-11-23T12:50:39.357Z,12.65
2023-11-23T12:51:42.294Z,12.55
2023-11-23T12:52:44.389Z,12.15
2023-11-23T12:53:46.433Z,12.80
2023-11-23T12:54:51.478Z,13.25
2023-11-23T12:55:53.872Z,12.23
2023-11-23T12:56:56.648Z,12.18
2023-11-23T12:58:00.158Z,12.47
2023-11-23T12:59:02.835Z,12.87
2023-11-23T13:00:06.153Z,12.18
2023-11-23T13:01:08.963Z,12.17
2023-11-23T13:02:11.153Z,11.68
2023-11-23T13:03:13.258Z,12.48
2023-11-23T13:04:20.658Z,12.42
2023-11-23T13:05:23.397Z,13.15
2023-11-23T13:06:29.073Z,12.10
2023-11-23T13:07:31.193Z,12.20
2023-11-23T13:08:33.317Z,12.65
2023-11-23T13:09:35.416Z,12.83
2023-11-23T13:10:39.005Z,12.83
2023-11-23T13:11:43.794Z,12.10
2023-11-23T13:12:51.686Z,13.10
2023-11-23T13:13:53.668Z,12.60
2023-11-23T13:14:57.295Z,12.87
2023-11-23T13:15:59.337Z,13.00
2023-11-23T13:17:01.899Z,13.37
2023-11-23T13:18:05.676Z,13.43
2023-11-23T13:19:17.102Z,13.07
2023-11-23T13:20:28.811Z,13.03
2023-11-23T13:21:30.949Z,13.28
2023-11-23T13:22:33.025Z,13.17
2023-11-23T13:23:35.095Z,13.53
2023-11-23T13:24:38.151Z,12.78
2023-11-23T13:25:40.389Z,12.57
2023-11-23T13:26:43.922Z,13.02
2023-11-23T13:27:45.952Z,13.90
2023-11-23T13:28:48.768Z,13.25
2023-11-23T13:29:51.004Z,13.33
2023-11-23T13:30:53.015Z,13.10
2023-11-23T13:31:59.029Z,13.32